Flight Track Log - Related Links

Times and Time Zones

All times are in EDT time to prevent confusion due to time zone crossing. See the SWA1046 flight status page for this flight to view local times or setup timezone preferences in your user account.

Time Position Orientation Groundspeed Altitude Reporting Facility
EDT Latitude Longitude Course Direction KTS MPH feet Rate Location/Type
Mon 11:16:47 AM 28.3833 -81.3000 180° South 179 206 1,800  Level Orlando TRACON
Mon 11:17:52 AM 28.3333 -81.3500 221° Southwest 219 252 4,600 2,905 Climbing Orlando TRACON
Mon 11:18:53 AM 28.3333 -81.4167 270° West 233 268 7,900 3,471 Climbing Orlando TRACON
Mon 11:19:53 AM 28.3167 -81.5000 257° West 235 270 11,600 3,350 Climbing Orlando TRACON
Mon 11:20:53 AM 28.3167 -81.5667 270° West 248 285 14,600 2,182 Climbing Orlando TRACON
Mon 11:21:54 AM 28.3167 -81.6667 270° West 315 362 16,000 896 Climbing Orlando TRACON
Mon 11:23:27 AM 28.3061 -81.8269 266° West 357 411 16,900 1,481 Climbing Jacksonville Center
Mon 11:24:28 AM 28.3008 -81.9472 267° West 368 423 19,800 2,579 Climbing Jacksonville Center
Mon 11:25:28 AM 28.2975 -82.0675 268° West 381 438 22,100 2,400 Climbing Jacksonville Center
Mon 11:26:28 AM 28.3067 -82.1925 275° West 388 447 24,600 2,450 Climbing Jacksonville Center
Mon 11:27:28 AM 28.4050 -82.2672 326° Northwest 369 425 27,000 2,017 Climbing Jacksonville Center
Mon 11:28:27 AM 28.5056 -82.3422 327° Northwest 390 449 28,600 1,513 Climbing Jacksonville Center
Mon 11:29:27 AM 28.6103 -82.4150 329° Northwest 421 484 30,000 1,686 Climbing Jacksonville Center
Mon 11:30:28 AM 28.7253 -82.5019 326° Northwest 436 502 32,000 1,000 Climbing Jacksonville Center
Mon 11:31:27 AM 28.8319 -82.5797 327° Northwest 448 516 32,000 555 Level Jacksonville Center
Mon 11:32:27 AM 28.9364 -82.6600 326° Northwest 454 522 33,100 1,686 Climbing Jacksonville Center
Mon 11:33:28 AM 29.0389 -82.7333 328° Northwest 454 522 35,400 2,100 Climbing Jacksonville Center
Mon 11:34:27 AM 29.1392 -82.8094 326° Northwest 441 507 37,300 1,311 Climbing Jacksonville Center
Mon 11:35:27 AM 29.2353 -82.8831 326° Northwest 430 495 38,000 350 Climbing Jacksonville Center
Mon 11:36:27 AM 29.3311 -82.9544 327° Northwest 420 483 38,000  Level Jacksonville Center
Mon 11:37:27 AM 29.4292 -83.0286 327° Northwest 420 483 38,000  Level Jacksonville Center
Mon 11:38:28 AM 29.5336 -83.1075 327° Northwest 426 490 38,000  Level Jacksonville Center
Mon 11:39:28 AM 29.6336 -83.1842 326° Northwest 431 496 38,000  Level Jacksonville Center
Mon 11:40:27 AM 29.7211 -83.2536 325° Northwest 436 502 38,000  Level Jacksonville Center
Mon 11:41:27 AM 29.8211 -83.3283 327° Northwest 436 502 38,000 496 Level Jacksonville Center
Mon 11:42:28 AM 29.9211 -83.4031 327° Northwest 436 502 39,000 1,000 Climbing Jacksonville Center
Mon 11:43:27 AM 30.0208 -83.4781 327° Northwest 431 496 40,000 500 Climbing Jacksonville Center
Mon 11:44:28 AM 30.1167 -83.5506 327° Northwest 426 490 40,000  Level Jacksonville Center
Mon 11:45:28 AM 30.2164 -83.6281 326° Northwest 426 490 40,000  Level Jacksonville Center
Mon 11:46:27 AM 30.3119 -83.7011 327° Northwest 420 483 40,000  Level Jacksonville Center
Mon 11:47:27 AM 30.4117 -83.7742 328° Northwest 420 483 40,000  Level Jacksonville Center
Mon 11:48:28 AM 30.5050 -83.8497 325° Northwest 420 483 40,000  Level Jacksonville Center
Mon 11:49:27 AM 30.6067 -83.9303 326° Northwest 415 478 40,000  Level Jacksonville Center
Mon 11:50:27 AM 30.7022 -84.0039 326° Northwest 415 478 40,000  Level Jacksonville Center
Mon 11:51:28 AM 30.7997 -84.0778 327° Northwest 415 478 40,000  Level Jacksonville Center
Mon 11:52:27 AM 30.8825 -84.1464 325° Northwest 415 478 40,000  Level Jacksonville Center
Mon 11:53:27 AM 30.9800 -84.2206 327° Northwest 420 483 40,000  Level Jacksonville Center
Mon 11:54:28 AM 31.0772 -84.2969 326° Northwest 420 483 40,000  Level Jacksonville Center
Mon 11:55:27 AM 31.1725 -84.3736 325° Northwest 420 483 40,000  Level Jacksonville Center
Mon 11:56:27 AM 31.2717 -84.4481 327° Northwest 420 483 40,000  Level Jacksonville Center
Mon 11:58:43 AM 31.5011 -84.6331 326° Northwest 421 484 40,000  Level Atlanta Center
Mon 11:59:43 AM 31.6008 -84.7119 326° Northwest 426 490 40,000  Level Atlanta Center
Mon 12:00:43 PM 31.6983 -84.7906 326° Northwest 426 490 40,000  Level Atlanta Center
Mon 12:01:43 PM 31.7878 -84.8622 326° Northwest 426 490 40,000  Level Atlanta Center
Mon 12:02:43 PM 31.8853 -84.9414 325° Northwest 426 490 40,000  Level Atlanta Center
Mon 12:03:43 PM 31.9869 -85.0208 326° Northwest 426 490 40,000  Level Atlanta Center
Mon 12:04:43 PM 32.0886 -85.1003 327° Northwest 426 490 40,000  Level Atlanta Center
Mon 12:05:43 PM 32.1964 -85.1850 326° Northwest 426 490 40,000  Level Atlanta Center
Mon 12:06:43 PM 32.2978 -85.2650 326° Northwest 426 490 40,000  Level Atlanta Center
Mon 12:07:43 PM 32.4014 -85.3500 325° Northwest 441 507 40,000  Level Atlanta Center
Mon 12:08:43 PM 32.5028 -85.4303 326° Northwest 441 507 40,000  Level Atlanta Center
Mon 12:09:43 PM 32.5997 -85.5158 323° Northwest 441 507 40,000  Level Atlanta Center
Mon 12:10:43 PM 32.7011 -85.5964 326° Northwest 446 513 40,000  Level Atlanta Center
Mon 12:11:43 PM 32.8003 -85.6772 326° Northwest 446 513 40,000  Level Atlanta Center
Mon 12:12:43 PM 32.8972 -85.7558 326° Northwest 446 513 40,000  Level Atlanta Center
Mon 12:13:43 PM 32.9964 -85.8394 325° Northwest 440 506 40,000  Level Atlanta Center
Mon 12:14:43 PM 33.0892 -85.9133 326° Northwest 445 512 40,000  Level Atlanta Center
Mon 12:15:43 PM 33.1839 -85.9947 324° Northwest 435 501 40,000  Level Atlanta Center
Mon 12:16:43 PM 33.2850 -86.0739 327° Northwest 440 506 40,000  Level Atlanta Center
Mon 12:17:43 PM 33.3836 -86.1583 324° Northwest 445 512 40,000  Level Atlanta Center
Mon 12:18:43 PM 33.4844 -86.2456 324° Northwest 445 512 40,000  Level Atlanta Center
Mon 12:19:43 PM 33.5933 -86.3381 325° Northwest 445 512 40,000  Level Atlanta Center
Mon 12:20:43 PM 33.6939 -86.4233 325° Northwest 445 512 40,000  Level Atlanta Center
Mon 12:21:43 PM 33.7944 -86.5086 325° Northwest 445 512 40,000  Level Atlanta Center
Mon 12:22:43 PM 33.8950 -86.5939 325° Northwest 445 512 40,000  Level Atlanta Center
Mon 12:23:43 PM 33.9978 -86.6772 326° Northwest 445 512 40,000  Level Atlanta Center
Mon 12:24:43 PM 34.0981 -86.7656 324° Northwest 445 512 40,000  Level Atlanta Center
Mon 12:25:21 PM 34.1619 -86.8228 323° Northwest 453 521 40,000  Level Memphis Center
Mon 12:26:21 PM 34.2519 -86.9019 324° Northwest 458 527 40,000  Level Memphis Center
Mon 12:27:21 PM 34.3522 -86.9886 324° Northwest 458 527 40,000  Level Memphis Center
Mon 12:28:21 PM 34.4483 -87.0728 324° Northwest 440 506 40,000  Level Memphis Center
Mon 12:29:21 PM 34.5531 -87.1672 323° Northwest 434 499 40,000  Level Memphis Center
Mon 12:30:21 PM 34.6489 -87.2444 326° Northwest 434 499 40,000  Level Memphis Center
Mon 12:31:21 PM 34.7472 -87.3317 324° Northwest 434 499 40,000  Level Memphis Center
Mon 12:32:21 PM 34.8453 -87.4169 324° Northwest 434 499 40,000  Level Memphis Center
Mon 12:33:21 PM 34.9411 -87.4997 325° Northwest 434 499 40,000  Level Memphis Center
Mon 12:34:21 PM 35.0389 -87.5850 324° Northwest 439 505 40,000  Level Memphis Center
Mon 12:35:21 PM 35.1281 -87.6608 325° Northwest 439 505 40,000  Level Memphis Center
Mon 12:36:22 PM 35.2239 -87.7467 324° Northwest 439 505 40,000  Level Memphis Center
Mon 12:37:21 PM 35.3217 -87.8325 324° Northwest 439 505 40,000  Level Memphis Center
Mon 12:38:21 PM 35.4194 -87.9214 323° Northwest 444 511 40,000  Level Memphis Center
Mon 12:39:21 PM 35.5192 -88.0103 324° Northwest 444 511 40,000  Level Memphis Center
Mon 12:40:21 PM 35.6167 -88.0969 324° Northwest 437 503 40,000  Level Memphis Center
Mon 12:41:21 PM 35.7139 -88.1786 326° Northwest 442 509 40,000  Level Memphis Center
Mon 12:42:21 PM 35.8092 -88.2606 325° Northwest 432 497 40,000  Level Memphis Center
Mon 12:43:21 PM 35.9025 -88.3478 323° Northwest 426 490 40,000  Level Memphis Center
Mon 12:44:21 PM 35.9978 -88.4328 324° Northwest 420 483 40,000  Level Memphis Center
Mon 12:45:21 PM 36.0928 -88.5206 323° Northwest 415 478 40,000  Level Memphis Center
Mon 12:46:21 PM 36.1878 -88.6083 323° Northwest 420 483 40,000 -350 Level Memphis Center
Mon 12:47:21 PM 36.2828 -88.6886 326° Northwest 415 478 39,300 -850 Descending Memphis Center
Mon 12:48:21 PM 36.3942 -88.7431 339° North 415 478 38,300 -950 Descending Memphis Center
Mon 12:49:21 PM 36.5031 -88.7950 339° North 415 478 37,400 -850 Descending Memphis Center
Mon 12:50:21 PM 36.6164 -88.8497 339° North 421 484 36,600 -900 Descending Memphis Center
Mon 12:51:21 PM 36.7275 -88.9019 339° North 426 490 35,600 -800 Descending Memphis Center
Mon 12:52:21 PM 36.8386 -88.9569 338° Northwest 426 490 35,000 -233 Descending Memphis Center
Mon 12:54:21 PM 36.9833 -89.1736 310° West 422 486 34,900 -923 Descending Kansas Center
Mon 12:55:23 PM 37.0525 -89.2850 308° West 412 474 32,200 -2,855 Descending Kansas Center
Mon 12:56:25 PM 37.1367 -89.4214 308° West 413 475 29,000 -2,710 Descending Kansas Center
Mon 12:57:27 PM 37.2031 -89.5356 306° West 410 472 26,600 -1,452 Descending Kansas Center
Mon 12:58:29 PM 37.2919 -89.6083 327° Northwest 393 452 26,000 -290 Descending Kansas Center
Mon 12:59:31 PM 37.3944 -89.6644 336° Northwest 397 457 26,000  Level Kansas Center
Mon 01:00:33 PM 37.4950 -89.7197 336° Northwest 396 456 26,000  Level Kansas Center
Mon 01:01:35 PM 37.6056 -89.7806 336° Northwest 395 455 26,000  Level Kansas Center
Mon 01:02:37 PM 37.7072 -89.8353 337° Northwest 397 457 26,000 -435 Level Kansas Center
Mon 01:03:39 PM 37.8069 -89.8906 336° Northwest 395 455 25,100 -1,645 Descending Kansas Center
Mon 01:04:41 PM 37.9217 -89.9522 337° Northwest 385 443 22,600 -2,274 Descending Kansas Center
Mon 01:05:43 PM 38.0217 -90.0067 337° Northwest 367 422 20,400 -2,032 Descending Kansas Center
Mon 01:06:45 PM 38.1114 -90.0589 335° Northwest 356 410 18,400 -1,935 Descending Kansas Center
Mon 01:07:47 PM 38.1994 -90.1078 336° Northwest 346 398 16,400 -1,984 Descending Kansas Center
Mon 01:08:49 PM 38.2919 -90.1597 336° Northwest 338 389 14,300 -1,935 Descending Kansas Center
Mon 01:09:51 PM 38.3753 -90.2067 336° Northwest 329 379 12,400 -1,790 Descending Kansas Center
Mon 01:10:53 PM 38.4628 -90.2553 336° Northwest 324 373 10,600 -1,210 Descending Kansas Center
Mon 01:11:55 PM 38.5389 -90.2983 336° Northwest 316 364 9,900 -968 Descending Kansas Center
Mon 01:12:57 PM 38.6072 -90.3367 336° Northwest 301 346 8,600 -1,065 Descending Kansas Center
Mon 01:13:59 PM 38.6594 -90.3850 324° Northwest 279 321 7,700 -1,065 Descending Kansas Center
Mon 01:15:01 PM 38.6942 -90.4575 302° West 240 276 6,400 -1,306 Descending Kansas Center
Mon 01:16:03 PM 38.7317 -90.5333 302° West 244 281 5,000 -726 Descending Kansas Center
Mon 01:17:05 PM 38.7653 -90.5986 303° West 223 257 4,900 -532 Descending Kansas Center
Mon 01:18:07 PM 38.8122 -90.5864 11° North 207 238 3,900 -1,016 Descending Kansas Center
Mon 01:19:09 PM 38.8056 -90.5175 97° East 199 229 2,800 -919 Descending Kansas Center
Mon 01:20:11 PM 38.7931 -90.4583 105° East 179 206 2,000 -823 Descending Kansas Center
Mon 01:21:13 PM 38.7675 -90.4069 123° Southeast 152 175 1,100 -726 Descending Kansas Center
Mon 01:22:15 PM 38.7517 -90.3736 121° Southeast 143 165 500 -581 Descending Kansas Center

Login

Don't have an account? Register now (free) for customized features, flight alerts, and more!